Weather at Point Petre Helipad [CLOSED]

Public forecast

Using degrees Celsius for public forecast. Weather courtesy of forecast.io.

Closest aviation weather report (METAR) to Point Petre Helipad

Closest report is CFB Trenton, 23.4 nm (43.4 km) NW.

2024/07/20 06:00 (retrieved 18 minutes ago)

CYTR 200600Z 24003KT 15SM SKC 16/14 A3008 RMK DENSITY ALT 517FT SLP187

Closest aviation forecast (TAF) to Point Petre Helipad

Closest forecast is CFB Trenton, 23.4 nm (43.4 km) NW.

2024/07/20 06:43 (retrieved 0 seconds ago)

TAF CYTR 200540Z 2006/2106 VRB03KT P6SM SKC FM201200 24005KT P6SM FEW060 BECMG 2014/2016 23012KT FM202300 23008KT P6SM FEW060 BKN240 BECMG 2101/2103 VRB03KT RMK NXT FCST BY 201200Z